createdAt,value
2023-01-04T00:01:08.499Z,3.05
2023-01-04T00:04:11.769Z,2.20
2023-01-04T00:07:15.078Z,3.03
2023-01-04T00:10:18.071Z,5.40
2023-01-04T00:13:20.739Z,2.95
2023-01-04T00:16:25.353Z,3.40
2023-01-04T00:19:28.115Z,2.15
2023-01-04T00:22:34.919Z,2.80
2023-01-04T00:25:41.163Z,2.80
2023-01-04T00:28:50.053Z,4.83
2023-01-04T00:31:56.620Z,4.65
2023-01-04T00:35:00.123Z,6.95
2023-01-04T00:38:02.952Z,4.03
2023-01-04T00:41:06.620Z,5.85
2023-01-04T00:44:10.144Z,5.53
2023-01-04T00:47:13.093Z,3.78
2023-01-04T00:50:16.055Z,3.40
2023-01-04T00:53:19.369Z,3.03
2023-01-04T00:56:22.355Z,1.23
2023-01-04T00:59:25.207Z,2.65
2023-01-04T01:02:28.363Z,5.53
2023-01-04T01:05:33.603Z,3.42
2023-01-04T01:08:36.309Z,4.03
2023-01-04T01:11:40.364Z,4.93
2023-01-04T01:14:43.175Z,4.63
2023-01-04T01:17:45.704Z,4.13
2023-01-04T01:20:48.317Z,3.22
2023-01-04T01:23:51.760Z,3.03
2023-01-04T01:26:54.977Z,3.17
2023-01-04T01:29:58.074Z,5.32
2023-01-04T01:33:00.786Z,1.83
2023-01-04T01:36:04.570Z,1.92
2023-01-04T01:39:07.221Z,5.10
2023-01-04T01:42:18.995Z,1.45
2023-01-04T01:45:34.749Z,2.40
2023-01-04T01:48:37.817Z,2.47
2023-01-04T01:51:41.474Z,5.43
2023-01-04T01:54:52.412Z,3.45
2023-01-04T01:57:55.820Z,2.10
2023-01-04T02:00:58.842Z,3.38
2023-01-04T02:04:02.365Z,4.63
2023-01-04T02:07:05.969Z,6.07
2023-01-04T02:10:09.126Z,4.38
2023-01-04T02:13:16.026Z,2.70
2023-01-04T02:16:22.479Z,2.33
2023-01-04T02:20:02.927Z,2.00
2023-01-04T02:23:24.298Z,2.85
2023-01-04T02:26:35.691Z,3.30
2023-01-04T02:29:50.333Z,4.45
2023-01-04T02:33:05.697Z,6.32
2023-01-04T02:36:16.910Z,5.38
2023-01-04T02:39:35.204Z,3.25
2023-01-04T02:43:18.570Z,3.40
2023-01-04T02:46:30.026Z,4.78
2023-01-04T02:49:51.297Z,9.80
2023-01-04T02:52:54.003Z,9.30
2023-01-04T02:56:35.861Z,2.80
2023-01-04T02:59:41.558Z,7.88
2023-01-04T03:03:30.879Z,4.63
2023-01-04T03:06:42.427Z,2.85
2023-01-04T03:09:48.037Z,7.35
2023-01-04T03:13:04.287Z,3.78
2023-01-04T03:16:12.567Z,4.40
2023-01-04T03:19:36.763Z,8.32
2023-01-04T03:23:05.433Z,7.95
2023-01-04T03:26:52.773Z,4.35
2023-01-04T03:30:21.208Z,3.42
2023-01-04T03:33:43.180Z,2.55
2023-01-04T03:37:19.642Z,1.17
2023-01-04T03:40:46.848Z,2.53
2023-01-04T03:44:23.426Z,5.23
2023-01-04T03:48:04.600Z,3.85
2023-01-04T03:51:17.327Z,5.88
2023-01-04T03:54:28.027Z,5.13
2023-01-04T03:57:31.050Z,4.97
2023-01-04T04:00:34.764Z,1.27
2023-01-04T04:03:56.035Z,1.15
2023-01-04T04:07:17.563Z,1.02
2023-01-04T04:10:20.249Z,2.20
2023-01-04T04:13:23.340Z,1.98
2023-01-04T04:16:26.640Z,1.20
2023-01-04T04:19:29.328Z,3.08
2023-01-04T04:22:31.929Z,6.50
2023-01-04T04:25:34.692Z,6.07
2023-01-04T04:28:37.934Z,4.57
2023-01-04T04:31:40.757Z,3.33
2023-01-04T04:34:43.465Z,4.43
2023-01-04T04:37:46.007Z,4.25
2023-01-04T04:41:08.253Z,8.05
2023-01-04T04:44:13.807Z,1.38
2023-01-04T04:47:17.100Z,1.83
2023-01-04T04:50:22.120Z,6.72
2023-01-04T04:53:24.874Z,2.55
2023-01-04T04:56:27.577Z,1.15
2023-01-04T04:59:30.810Z,1.85
2023-01-04T05:02:33.416Z,5.80
2023-01-04T05:05:36.056Z,8.50
2023-01-04T05:08:38.698Z,5.25
2023-01-04T05:12:00.295Z,6.30
2023-01-04T05:15:03.368Z,8.98
2023-01-04T05:18:07.318Z,5.97
2023-01-04T05:21:10.012Z,3.90
2023-01-04T05:24:13.123Z,3.92
2023-01-04T05:27:15.939Z,8.35
2023-01-04T05:30:37.520Z,3.15
2023-01-04T05:33:40.248Z,3.10
2023-01-04T05:36:42.878Z,7.70
2023-01-04T05:39:45.432Z,9.60
2023-01-04T05:42:48.503Z,3.78
2023-01-04T05:45:56.035Z,12.73
2023-01-04T05:48:58.811Z,6.00
2023-01-04T05:52:02.692Z,5.78
2023-01-04T05:55:05.849Z,3.25
2023-01-04T05:58:09.135Z,4.00
2023-01-04T06:01:12.858Z,47.03
2023-01-04T06:04:15.621Z,4.78
2023-01-04T06:07:18.528Z,2.33
2023-01-04T06:10:21.120Z,2.22
2023-01-04T06:13:23.735Z,2.00
2023-01-04T06:16:26.392Z,4.35
2023-01-04T06:19:29.237Z,2.45
2023-01-04T06:22:33.084Z,7.70
2023-01-04T06:25:35.710Z,8.43
2023-01-04T06:28:41.140Z,10.45
2023-01-04T06:31:44.224Z,10.95
2023-01-04T06:34:47.014Z,8.90
2023-01-04T06:37:49.680Z,4.45
2023-01-04T06:40:52.697Z,3.58
2023-01-04T06:43:55.433Z,4.85
2023-01-04T06:46:58.021Z,6.25
2023-01-04T06:50:00.977Z,4.63
2023-01-04T06:53:03.713Z,7.65
2023-01-04T06:56:08.357Z,7.50
2023-01-04T06:59:11.090Z,4.20
2023-01-04T07:02:17.384Z,29.05
2023-01-04T07:05:20.268Z,5.27
2023-01-04T07:08:23.542Z,2.78
2023-01-04T07:11:26.265Z,6.57
2023-01-04T07:14:29.244Z,4.82
2023-01-04T07:17:31.889Z,7.78
2023-01-04T07:20:34.583Z,6.63
2023-01-04T07:23:37.341Z,4.40
2023-01-04T07:26:40.150Z,4.47
2023-01-04T07:29:44.543Z,6.93
2023-01-04T07:32:47.360Z,4.60
2023-01-04T07:35:50.117Z,7.70
2023-01-04T07:38:52.798Z,4.53
2023-01-04T07:41:55.665Z,10.68
2023-01-04T07:45:00.293Z,8.48
2023-01-04T07:48:03.345Z,4.95
2023-01-04T07:51:06.038Z,6.38
2023-01-04T07:54:10.428Z,13.55
2023-01-04T07:57:13.354Z,7.40
2023-01-04T08:00:16.537Z,3.72
2023-01-04T08:03:19.639Z,3.53
2023-01-04T08:06:22.523Z,6.28
2023-01-04T08:09:25.663Z,3.33
2023-01-04T08:12:28.519Z,2.00
2023-01-04T08:15:31.589Z,2.30
2023-01-04T08:18:34.861Z,3.55
2023-01-04T08:21:38.056Z,20.08
2023-01-04T08:24:40.778Z,12.50
2023-01-04T08:27:43.623Z,16.08
2023-01-04T08:30:46.665Z,19.38
2023-01-04T08:33:50.429Z,23.13
2023-01-04T08:36:54.412Z,27.00
2023-01-04T08:39:57.076Z,26.25
2023-01-04T08:43:00.146Z,18.63
2023-01-04T08:46:04.498Z,18.02
2023-01-04T08:49:07.928Z,10.57
2023-01-04T08:52:11.991Z,12.75
2023-01-04T08:55:21.527Z,8.95
2023-01-04T08:58:26.007Z,6.00
2023-01-04T09:01:29.286Z,8.07
2023-01-04T09:04:32.194Z,16.27
2023-01-04T09:07:35.076Z,8.43
2023-01-04T09:10:40.922Z,8.73
2023-01-04T09:13:44.652Z,12.90
2023-01-04T09:16:47.669Z,8.23
2023-01-04T09:19:50.889Z,7.20
2023-01-04T09:22:53.653Z,11.73
2023-01-04T09:25:57.064Z,12.90
2023-01-04T09:29:03.835Z,8.52
2023-01-04T09:32:10.249Z,11.20
2023-01-04T09:35:17.847Z,10.50
2023-01-04T09:38:20.746Z,7.60
2023-01-04T09:41:28.507Z,6.32
2023-01-04T09:47:59.970Z,4.35
2023-01-04T09:51:07.623Z,4.30
2023-01-04T09:54:17.409Z,5.28
2023-01-04T09:57:27.728Z,5.45
2023-01-04T10:00:43.417Z,5.10
2023-01-04T10:04:21.541Z,5.65
2023-01-04T10:07:29.477Z,7.28
2023-01-04T10:10:55.483Z,6.53
2023-01-04T10:14:35.471Z,5.45
2023-01-04T10:21:38.837Z,5.65
2023-01-04T10:24:48.858Z,3.75
2023-01-04T10:28:03.978Z,3.13
2023-01-04T10:31:40.756Z,6.75
2023-01-04T10:34:46.203Z,7.75
2023-01-04T10:37:52.153Z,3.65
2023-01-04T10:40:58.138Z,8.00
2023-01-04T10:44:14.511Z,9.25
2023-01-04T10:47:33.285Z,12.55
2023-01-04T10:50:54.000Z,5.68
2023-01-04T10:53:58.544Z,6.20
2023-01-04T10:57:08.498Z,6.95
2023-01-04T11:00:20.301Z,5.40
2023-01-04T11:03:52.171Z,7.53
2023-01-04T11:07:09.116Z,10.25
2023-01-04T11:10:23.547Z,5.30
2023-01-04T11:13:26.877Z,8.20
2023-01-04T11:16:30.038Z,4.22
2023-01-04T11:19:33.570Z,8.00
2023-01-04T11:22:54.443Z,6.90
2023-01-04T11:26:00.022Z,7.47
2023-01-04T11:29:07.773Z,6.55
2023-01-04T11:32:23.183Z,7.97
2023-01-04T11:35:42.480Z,5.60
2023-01-04T11:38:55.303Z,6.55
2023-01-04T11:42:03.191Z,8.43
2023-01-04T11:45:07.069Z,7.43
2023-01-04T11:48:15.266Z,5.53
2023-01-04T11:51:32.128Z,6.32
2023-01-04T11:54:34.906Z,7.37
2023-01-04T11:57:37.976Z,7.30
2023-01-04T12:00:58.330Z,8.63
2023-01-04T12:04:01.333Z,6.05
2023-01-04T12:07:10.148Z,7.45
2023-01-04T12:10:27.512Z,10.38
2023-01-04T12:13:32.249Z,10.35
2023-01-04T12:16:41.140Z,9.18
2023-01-04T12:19:45.037Z,8.40
2023-01-04T12:22:48.035Z,10.80
2023-01-04T12:25:51.754Z,12.02
2023-01-04T12:29:23.862Z,6.38
2023-01-04T12:32:26.753Z,12.07
2023-01-04T12:36:08.656Z,10.68
2023-01-04T12:39:14.528Z,9.65
2023-01-04T12:42:24.795Z,8.65
2023-01-04T12:45:27.844Z,10.32
2023-01-04T12:48:49.122Z,6.80
2023-01-04T12:52:31.978Z,9.10
2023-01-04T12:55:35.180Z,8.15
2023-01-04T12:59:15.223Z,9.52
2023-01-04T13:02:20.554Z,11.07
2023-01-04T13:08:47.881Z,10.05
2023-01-04T13:11:53.513Z,16.00
2023-01-04T13:15:06.374Z,16.13
2023-01-04T13:18:27.018Z,16.67
2023-01-04T13:21:40.142Z,12.00
2023-01-04T13:24:44.159Z,17.50
2023-01-04T13:28:01.530Z,12.80
2023-01-04T13:31:04.605Z,10.63
2023-01-04T13:34:16.944Z,11.40
2023-01-04T13:37:35.287Z,14.10
2023-01-04T13:40:48.855Z,10.52
2023-01-04T13:44:12.351Z,21.23
2023-01-04T13:47:15.777Z,13.18
2023-01-04T13:50:40.458Z,10.80
2023-01-04T13:53:52.444Z,13.63
2023-01-04T13:57:08.959Z,20.42
2023-01-04T14:00:14.357Z,17.67
2023-01-04T14:03:40.485Z,23.52
2023-01-04T14:06:49.235Z,20.58
2023-01-04T14:09:55.314Z,26.90
2023-01-04T14:12:58.320Z,19.40
2023-01-04T14:16:13.417Z,19.67
2023-01-04T14:19:35.260Z,10.77
2023-01-04T14:22:45.798Z,11.93
2023-01-04T14:25:56.842Z,12.52
2023-01-04T14:29:00.025Z,14.05
2023-01-04T14:32:03.749Z,11.80
2023-01-04T14:35:12.074Z,13.65
2023-01-04T14:38:18.394Z,12.20
2023-01-04T14:41:27.752Z,13.98
2023-01-04T14:44:31.801Z,14.27
2023-01-04T14:47:35.847Z,17.77
2023-01-04T14:50:38.512Z,14.85
2023-01-04T14:53:42.525Z,17.95
2023-01-04T14:56:45.297Z,20.98
2023-01-04T14:59:48.812Z,19.05
2023-01-04T15:02:52.619Z,20.90
2023-01-04T15:05:55.823Z,15.00
2023-01-04T15:08:58.816Z,14.50
2023-01-04T15:12:01.523Z,17.95
2023-01-04T15:15:04.937Z,16.02
2023-01-04T15:18:08.211Z,17.23
2023-01-04T15:21:12.084Z,18.17
2023-01-04T15:24:14.885Z,48.72
2023-01-04T15:27:18.015Z,18.33
2023-01-04T15:30:20.957Z,13.30
2023-01-04T15:33:24.023Z,13.98
2023-01-04T15:36:27.099Z,12.80
2023-01-04T15:39:29.809Z,17.02
2023-01-04T15:42:51.582Z,15.75
2023-01-04T15:45:54.381Z,18.70
2023-01-04T15:48:57.654Z,15.38
2023-01-04T15:52:00.966Z,17.15
2023-01-04T15:55:04.302Z,10.25
2023-01-04T15:58:07.696Z,18.67
2023-01-04T16:01:13.035Z,16.25
2023-01-04T16:04:16.654Z,15.38
2023-01-04T16:07:20.171Z,17.90
2023-01-04T16:10:23.269Z,39.13
2023-01-04T16:13:26.597Z,49.75
2023-01-04T16:16:29.814Z,46.10
2023-01-04T16:19:34.720Z,35.03
2023-01-04T16:22:37.771Z,26.10
2023-01-04T16:25:40.799Z,26.05
2023-01-04T16:28:43.875Z,21.38
2023-01-04T16:31:47.202Z,23.20
2023-01-04T16:34:51.549Z,26.40
2023-01-04T16:37:54.932Z,29.35
2023-01-04T16:41:00.167Z,21.77
2023-01-04T16:44:05.666Z,16.98
2023-01-04T16:47:08.691Z,15.15
2023-01-04T16:50:12.987Z,17.70
2023-01-04T16:53:15.930Z,14.77
2023-01-04T16:56:20.835Z,14.77
2023-01-04T16:59:24.021Z,14.98
2023-01-04T17:02:27.012Z,16.10
2023-01-04T17:05:29.814Z,15.38
2023-01-04T17:08:32.660Z,16.60
2023-01-04T17:12:19.265Z,14.43
2023-01-04T17:15:40.673Z,15.23
2023-01-04T17:18:24.037Z,15.50
2023-01-04T17:21:34.188Z,10.85
2023-01-04T17:24:38.762Z,20.05
2023-01-04T17:27:41.741Z,15.65
2023-01-04T17:30:45.341Z,20.42
2023-01-04T17:33:49.234Z,16.83
2023-01-04T17:36:52.151Z,17.85
2023-01-04T17:39:55.499Z,21.00
2023-01-04T17:42:59.907Z,26.42
2023-01-04T17:46:05.084Z,13.07
2023-01-04T17:49:22.251Z,17.92
2023-01-04T17:55:34.493Z,13.80
2023-01-04T17:58:37.739Z,17.08
2023-01-04T18:01:40.649Z,13.27
2023-01-04T18:04:43.465Z,15.25
2023-01-04T18:07:46.230Z,12.10
2023-01-04T18:11:06.983Z,13.05
2023-01-04T18:14:14.617Z,16.80
2023-01-04T18:17:17.835Z,13.13
2023-01-04T18:20:24.897Z,15.38
2023-01-04T18:23:29.407Z,14.57
2023-01-04T18:26:41.667Z,13.02
2023-01-04T18:29:56.602Z,13.20
2023-01-04T18:32:59.553Z,14.48
2023-01-04T18:36:04.189Z,13.05
2023-01-04T18:39:06.951Z,30.00
2023-01-04T18:42:09.923Z,26.23
2023-01-04T18:45:13.226Z,20.67
2023-01-04T18:48:16.211Z,19.60
2023-01-04T18:51:19.398Z,12.82
2023-01-04T18:54:22.214Z,13.60
2023-01-04T18:57:25.560Z,13.55
2023-01-04T19:00:30.445Z,18.77
2023-01-04T19:03:37.155Z,19.40
2023-01-04T19:06:41.031Z,16.23
2023-01-04T19:09:44.624Z,14.38
2023-01-04T19:12:48.226Z,17.98
2023-01-04T19:15:51.194Z,14.23
2023-01-04T19:18:54.163Z,14.95
2023-01-04T19:21:56.950Z,14.65
2023-01-04T19:24:59.957Z,16.50
2023-01-04T19:28:04.534Z,15.25
2023-01-04T19:31:08.843Z,19.17
2023-01-04T19:34:13.004Z,14.32
2023-01-04T19:37:16.255Z,21.30
2023-01-04T19:40:19.482Z,16.08
2023-01-04T19:43:22.347Z,17.40
2023-01-04T19:46:25.593Z,16.20
2023-01-04T19:49:29.011Z,14.98
2023-01-04T19:52:35.118Z,16.02
2023-01-04T19:55:41.563Z,15.82
2023-01-04T19:58:45.140Z,14.48
2023-01-04T20:01:48.018Z,16.33
2023-01-04T20:04:51.069Z,12.90
2023-01-04T20:07:53.901Z,14.20
2023-01-04T20:10:58.195Z,18.42
2023-01-04T20:14:01.272Z,13.02
2023-01-04T20:17:04.540Z,14.27
2023-01-04T20:20:07.958Z,13.50
2023-01-04T20:23:11.478Z,12.73
2023-01-04T20:26:16.526Z,13.98
2023-01-04T20:29:19.462Z,12.82
2023-01-04T20:32:22.623Z,15.30
2023-01-04T20:35:25.431Z,14.93
2023-01-04T20:38:28.272Z,16.05
2023-01-04T20:41:32.833Z,16.77
2023-01-04T20:44:36.213Z,14.57
2023-01-04T20:47:39.115Z,14.43
2023-01-04T20:50:42.345Z,13.23
2023-01-04T20:53:45.775Z,18.90
2023-01-04T20:56:48.727Z,11.90
2023-01-04T20:59:51.825Z,15.98
2023-01-04T21:02:54.844Z,12.25
2023-01-04T21:06:01.458Z,14.60
2023-01-04T21:09:04.745Z,15.25
2023-01-04T21:12:07.752Z,11.85
2023-01-04T21:15:10.869Z,15.07
2023-01-04T21:18:13.743Z,15.75
2023-01-04T21:21:18.141Z,12.65
2023-01-04T21:24:21.350Z,19.98
2023-01-04T21:27:24.073Z,21.33
2023-01-04T21:30:27.524Z,18.27
2023-01-04T21:33:31.022Z,17.90
2023-01-04T21:36:33.828Z,15.70
2023-01-04T21:39:36.583Z,16.75
2023-01-04T21:42:39.453Z,21.45
2023-01-04T21:45:42.128Z,22.08
2023-01-04T21:48:45.662Z,13.88
2023-01-04T21:51:48.462Z,17.33
2023-01-04T21:54:51.248Z,19.20
2023-01-04T21:57:54.154Z,12.80
2023-01-04T22:00:57.410Z,15.52
2023-01-04T22:04:00.766Z,15.13
2023-01-04T22:07:03.698Z,17.98
2023-01-04T22:10:06.989Z,14.00
2023-01-04T22:13:10.059Z,10.63
2023-01-04T22:16:14.637Z,10.68
2023-01-04T22:19:17.416Z,13.27
2023-01-04T22:22:20.448Z,15.60
2023-01-04T22:25:23.073Z,18.13
2023-01-04T22:28:29.475Z,26.17
2023-01-04T22:31:35.959Z,25.33
2023-01-04T22:34:38.650Z,15.23
2023-01-04T22:37:41.203Z,24.05
2023-01-04T22:40:43.743Z,34.03
2023-01-04T22:43:46.995Z,18.38
2023-01-04T22:46:49.930Z,13.52
2023-01-04T22:49:52.585Z,11.07
2023-01-04T22:52:55.371Z,10.68
2023-01-04T22:56:18.221Z,14.18
2023-01-04T22:59:20.772Z,13.15
2023-01-04T23:02:23.275Z,6.13
2023-01-04T23:05:25.839Z,19.83
2023-01-04T23:08:28.496Z,32.80
2023-01-04T23:11:32.775Z,39.05
2023-01-04T23:14:35.582Z,18.70
2023-01-04T23:17:38.419Z,8.23
2023-01-04T23:20:41.068Z,8.90
2023-01-04T23:23:44.423Z,8.48
2023-01-04T23:26:47.559Z,7.65
2023-01-04T23:29:50.107Z,9.15
2023-01-04T23:32:52.664Z,9.23
2023-01-04T23:35:55.310Z,8.43
2023-01-04T23:38:59.987Z,5.70
2023-01-04T23:42:02.719Z,7.68
2023-01-04T23:45:06.072Z,17.30
2023-01-04T23:48:08.640Z,8.05
2023-01-04T23:51:15.304Z,13.13
2023-01-04T23:54:18.514Z,12.15
2023-01-04T23:57:21.119Z,8.48
